createdAt,value
2023-04-06T00:00:39.212Z,16.52
2023-04-06T00:01:39.222Z,16.53
2023-04-06T00:02:39.243Z,16.53
2023-04-06T00:03:39.235Z,16.53
2023-04-06T00:04:39.192Z,16.53
2023-04-06T00:05:39.196Z,16.53
2023-04-06T00:06:39.154Z,16.52
2023-04-06T00:07:39.145Z,16.53
2023-04-06T00:08:39.157Z,16.53
2023-04-06T00:09:39.119Z,16.53
2023-04-06T00:10:39.115Z,16.53
2023-04-06T00:11:39.132Z,16.53
2023-04-06T00:12:39.089Z,16.53
2023-04-06T00:13:39.077Z,16.52
2023-04-06T00:14:39.062Z,16.53
2023-04-06T00:15:39.054Z,16.52
2023-04-06T00:16:39.053Z,16.53
2023-04-06T00:17:39.107Z,16.53
2023-04-06T00:18:39.020Z,16.52
2023-04-06T00:19:39.011Z,16.52
2023-04-06T00:20:39.013Z,16.53
2023-04-06T00:21:39.033Z,16.52
2023-04-06T00:22:39.001Z,16.53
2023-04-06T00:23:38.967Z,16.52
2023-04-06T00:24:38.981Z,16.53
2023-04-06T00:25:38.946Z,16.53
2023-04-06T00:26:38.940Z,16.52
2023-04-06T00:27:38.930Z,16.56
2023-04-06T00:28:38.946Z,16.53
2023-04-06T00:29:38.920Z,16.52
2023-04-06T00:30:38.895Z,16.52
2023-04-06T00:31:38.948Z,16.52
2023-04-06T00:32:38.935Z,16.52
2023-04-06T00:33:38.884Z,16.52
2023-04-06T00:34:38.872Z,16.52
2023-04-06T00:35:38.872Z,16.52
2023-04-06T00:36:38.838Z,16.52
2023-04-06T00:37:38.823Z,16.52
2023-04-06T00:38:38.810Z,16.52
2023-04-06T00:39:38.816Z,16.50
2023-04-06T00:40:38.818Z,16.50
2023-04-06T00:41:38.774Z,16.52
2023-04-06T00:42:38.785Z,16.52
2023-04-06T00:43:38.782Z,16.52
2023-04-06T00:44:38.744Z,16.52
2023-04-06T00:45:38.811Z,16.52
2023-04-06T00:46:38.723Z,16.52
2023-04-06T00:47:38.743Z,16.52
2023-04-06T00:48:38.706Z,16.53
2023-04-06T00:49:38.689Z,16.53
2023-04-06T00:50:38.704Z,16.52
2023-04-06T00:51:38.672Z,16.52
2023-04-06T00:52:38.684Z,16.53
2023-04-06T00:53:38.645Z,16.52
2023-04-06T00:54:38.639Z,16.52
2023-04-06T00:55:38.623Z,16.52
2023-04-06T00:56:38.654Z,16.52
2023-04-06T00:57:38.652Z,16.50
2023-04-06T00:58:38.615Z,16.52
2023-04-06T00:59:38.697Z,16.50
2023-04-06T01:00:38.571Z,16.52
2023-04-06T01:01:38.628Z,16.52
2023-04-06T01:02:38.610Z,16.53
2023-04-06T01:03:38.538Z,16.50
2023-04-06T01:04:38.571Z,16.53
2023-04-06T01:05:38.607Z,16.50
2023-04-06T01:06:38.510Z,16.52
2023-04-06T01:07:38.497Z,16.52
2023-04-06T01:08:38.492Z,16.52
2023-04-06T01:09:38.474Z,16.52
2023-04-06T01:10:38.489Z,16.52
2023-04-06T01:11:38.476Z,16.52
2023-04-06T01:12:38.482Z,16.52
2023-04-06T01:13:38.431Z,16.50
2023-04-06T01:14:38.424Z,16.50
2023-04-06T01:15:38.488Z,16.50
2023-04-06T01:16:38.409Z,16.52
2023-04-06T01:17:38.407Z,16.52
2023-04-06T01:18:38.380Z,16.49
2023-04-06T01:19:38.365Z,16.52
2023-04-06T01:20:38.382Z,16.50
2023-04-06T01:21:38.350Z,16.52
2023-04-06T01:22:38.360Z,16.52
2023-04-06T01:23:38.328Z,16.50
2023-04-06T01:24:38.321Z,16.50
2023-04-06T01:25:38.330Z,16.50
2023-04-06T01:26:38.294Z,16.52
2023-04-06T01:27:38.281Z,16.49
2023-04-06T01:28:38.312Z,16.50
2023-04-06T01:29:38.268Z,16.50
2023-04-06T01:30:38.250Z,16.50
2023-04-06T01:31:38.404Z,16.50
2023-04-06T01:32:38.259Z,16.52
2023-04-06T01:33:38.291Z,16.52
2023-04-06T01:34:38.208Z,16.52
2023-04-06T01:35:38.281Z,16.50
2023-04-06T01:36:38.184Z,16.49
2023-04-06T01:37:38.179Z,16.49
2023-04-06T01:38:38.169Z,16.50
2023-04-06T01:39:38.175Z,16.52
2023-04-06T01:40:38.162Z,16.52
2023-04-06T01:41:38.143Z,16.52
2023-04-06T01:42:38.129Z,16.52
2023-04-06T01:43:38.126Z,16.50
2023-04-06T01:44:38.132Z,16.50
2023-04-06T01:45:38.087Z,16.50
2023-04-06T01:46:38.117Z,16.50
2023-04-06T01:47:38.097Z,16.50
2023-04-06T01:48:38.071Z,16.52
2023-04-06T01:49:38.062Z,16.50
2023-04-06T01:50:38.032Z,16.52
2023-04-06T01:51:38.016Z,16.52
2023-04-06T01:52:38.010Z,16.52
2023-04-06T01:53:38.000Z,16.52
2023-04-06T01:54:38.014Z,16.50
2023-04-06T01:55:37.996Z,16.50
2023-04-06T01:56:37.965Z,16.52
2023-04-06T01:57:37.961Z,16.50
2023-04-06T01:58:37.966Z,16.50
2023-04-06T01:59:38.091Z,16.52
2023-04-06T02:00:38.001Z,16.52
2023-04-06T02:01:38.098Z,16.50
2023-04-06T02:02:38.022Z,16.50
2023-04-06T02:03:37.905Z,16.50
2023-04-06T02:04:37.909Z,16.52
2023-04-06T02:05:37.869Z,16.50
2023-04-06T02:06:37.862Z,16.50
2023-04-06T02:07:37.865Z,16.50
2023-04-06T02:08:37.834Z,16.50
2023-04-06T02:09:37.851Z,16.50
2023-04-06T02:10:37.814Z,16.50
2023-04-06T02:11:37.804Z,16.50
2023-04-06T02:12:37.824Z,16.50
2023-04-06T02:13:37.783Z,16.50
2023-04-06T02:14:37.775Z,16.50
2023-04-06T02:15:37.766Z,16.49
2023-04-06T02:16:37.889Z,16.50
2023-04-06T02:17:37.787Z,16.49
2023-04-06T02:18:37.739Z,16.50
2023-04-06T02:19:37.753Z,16.50
2023-04-06T02:20:37.761Z,16.50
2023-04-06T02:21:37.699Z,16.49
2023-04-06T02:22:37.704Z,16.50
2023-04-06T02:23:37.684Z,16.49
2023-04-06T02:24:37.734Z,16.49
2023-04-06T02:25:37.690Z,16.49
2023-04-06T02:26:37.640Z,16.50
2023-04-06T02:27:37.638Z,16.50
2023-04-06T02:28:37.643Z,16.50
2023-04-06T02:29:37.639Z,16.49
2023-04-06T02:30:37.602Z,16.50
2023-04-06T02:31:37.646Z,16.49
2023-04-06T02:32:37.616Z,16.50
2023-04-06T02:33:37.564Z,16.50
2023-04-06T02:34:37.585Z,16.50
2023-04-06T02:35:37.583Z,16.50
2023-04-06T02:36:37.549Z,16.50
2023-04-06T02:37:37.538Z,16.50
2023-04-06T02:38:37.516Z,16.50
2023-04-06T02:39:37.506Z,16.49
2023-04-06T02:40:37.512Z,16.50
2023-04-06T02:41:37.492Z,16.50
2023-04-06T02:42:37.471Z,16.50
2023-04-06T02:43:37.474Z,16.50
2023-04-06T02:44:37.449Z,16.49
2023-04-06T02:45:37.481Z,16.50
2023-04-06T02:46:37.431Z,16.50
2023-04-06T02:47:37.457Z,16.50
2023-04-06T02:48:37.437Z,16.50
2023-04-06T02:49:37.393Z,16.49
2023-04-06T02:50:37.412Z,16.50
2023-04-06T02:51:37.383Z,16.49
2023-04-06T02:52:37.361Z,16.50
2023-04-06T02:53:37.363Z,16.49
2023-04-06T02:54:37.352Z,16.49
2023-04-06T02:55:37.355Z,16.49
2023-04-06T02:56:37.342Z,16.49
2023-04-06T02:57:37.327Z,16.50
2023-04-06T02:58:37.301Z,16.49
2023-04-06T02:59:37.363Z,16.50
2023-04-06T03:00:37.274Z,16.50
2023-04-06T03:01:37.377Z,16.50
2023-04-06T03:02:37.396Z,16.49
2023-04-06T03:03:37.383Z,16.50
2023-04-06T03:04:37.264Z,16.49
2023-04-06T03:05:37.230Z,16.49
2023-04-06T03:06:37.239Z,16.50
2023-04-06T03:07:37.197Z,16.49
2023-04-06T03:08:37.188Z,16.49
2023-04-06T03:09:37.177Z,16.49
2023-04-06T03:10:37.176Z,16.50
2023-04-06T03:11:37.182Z,16.50
2023-04-06T03:12:37.142Z,16.49
2023-04-06T03:13:37.134Z,16.49
2023-04-06T03:14:37.136Z,16.49
2023-04-06T03:15:37.154Z,16.49
2023-04-06T03:16:37.121Z,16.49
2023-04-06T03:17:37.125Z,16.49
2023-04-06T03:18:37.081Z,16.48
2023-04-06T03:19:37.066Z,16.49
2023-04-06T03:20:37.100Z,16.50
2023-04-06T03:21:37.053Z,16.49
2023-04-06T03:22:37.058Z,16.48
2023-04-06T03:23:37.049Z,16.49
2023-04-06T03:24:37.014Z,16.49
2023-04-06T03:25:37.016Z,16.49
2023-04-06T03:26:36.993Z,16.48
2023-04-06T03:27:37.000Z,16.48
2023-04-06T03:28:36.991Z,16.49
2023-04-06T03:29:36.955Z,16.49
2023-04-06T03:30:36.967Z,16.48
2023-04-06T03:31:36.957Z,16.49
2023-04-06T03:32:36.959Z,16.48
2023-04-06T03:33:36.913Z,16.49
2023-04-06T03:34:36.917Z,16.49
2023-04-06T03:35:36.945Z,16.50
2023-04-06T03:36:36.932Z,16.48
2023-04-06T03:37:36.869Z,16.49
2023-04-06T03:38:37.937Z,16.48
2023-04-06T03:39:36.858Z,16.49
2023-04-06T03:40:36.837Z,16.48
2023-04-06T03:41:36.866Z,16.48
2023-04-06T03:42:36.817Z,16.48
2023-04-06T03:43:36.812Z,16.46
2023-04-06T03:44:36.798Z,16.48
2023-04-06T03:45:36.787Z,16.49
2023-04-06T03:46:36.867Z,16.48
2023-04-06T03:47:36.781Z,16.48
2023-04-06T03:48:36.752Z,16.48
2023-04-06T03:49:37.558Z,16.49
2023-04-06T03:50:36.731Z,16.49
2023-04-06T03:51:36.742Z,16.49
2023-04-06T03:52:36.738Z,16.48
2023-04-06T03:53:36.696Z,16.48
2023-04-06T03:54:36.711Z,16.48
2023-04-06T03:55:36.673Z,16.48
2023-04-06T03:56:36.684Z,16.48
2023-04-06T03:57:36.688Z,16.48
2023-04-06T03:58:36.663Z,16.49
2023-04-06T03:59:36.717Z,16.49
2023-04-06T04:00:36.630Z,16.48
2023-04-06T04:01:36.640Z,16.48
2023-04-06T04:02:36.711Z,16.49
2023-04-06T04:03:36.716Z,16.49
2023-04-06T04:04:36.612Z,16.48
2023-04-06T04:05:36.572Z,16.48
2023-04-06T04:06:36.578Z,16.48
2023-04-06T04:07:36.547Z,16.48
2023-04-06T04:08:36.560Z,16.49
2023-04-06T04:09:36.548Z,16.48
2023-04-06T04:10:36.517Z,16.48
2023-04-06T04:11:36.503Z,16.48
2023-04-06T04:12:36.517Z,16.48
2023-04-06T04:13:36.483Z,16.49
2023-04-06T04:14:36.475Z,16.48
2023-04-06T04:15:36.484Z,16.48
2023-04-06T04:16:36.461Z,16.49
2023-04-06T04:17:36.482Z,16.48
2023-04-06T04:18:36.430Z,16.48
2023-04-06T04:19:36.418Z,16.48
2023-04-06T04:20:36.426Z,16.49
2023-04-06T04:21:36.400Z,16.48
2023-04-06T04:22:36.383Z,16.49
2023-04-06T04:23:37.515Z,16.48
2023-04-06T04:24:36.388Z,16.48
2023-04-06T04:25:36.374Z,16.48
2023-04-06T04:26:36.339Z,16.49
2023-04-06T04:27:36.333Z,16.48
2023-04-06T04:28:36.330Z,16.48
2023-04-06T04:29:36.317Z,16.48
2023-04-06T04:30:36.332Z,16.48
2023-04-06T04:31:36.395Z,16.48
2023-04-06T04:32:36.302Z,16.48
2023-04-06T04:33:36.298Z,16.48
2023-04-06T04:34:36.265Z,16.48
2023-04-06T04:35:36.293Z,16.48
2023-04-06T04:36:36.259Z,16.48
2023-04-06T04:37:36.248Z,16.48
2023-04-06T04:38:36.257Z,16.46
2023-04-06T04:39:36.210Z,16.46
2023-04-06T04:40:36.226Z,16.46
2023-04-06T04:41:36.192Z,16.48
2023-04-06T04:42:36.205Z,16.46
2023-04-06T04:43:36.182Z,16.48
2023-04-06T04:44:36.181Z,16.48
2023-04-06T04:45:36.190Z,16.45
2023-04-06T04:46:36.163Z,16.46
2023-04-06T04:47:36.159Z,16.46
2023-04-06T04:48:36.160Z,16.46
2023-04-06T04:49:36.168Z,16.46
2023-04-06T04:50:36.101Z,16.46
2023-04-06T04:51:36.093Z,16.46
2023-04-06T04:52:36.072Z,16.46
2023-04-06T04:53:36.088Z,16.48
2023-04-06T04:54:36.073Z,16.48
2023-04-06T04:55:36.047Z,16.48
2023-04-06T04:56:36.068Z,16.46
2023-04-06T04:57:36.017Z,16.48
2023-04-06T04:58:36.006Z,16.48
2023-04-06T04:59:36.188Z,16.48
2023-04-06T05:00:35.985Z,16.46
2023-04-06T05:01:47.666Z,16.48
2023-04-06T05:02:37.031Z,16.48
2023-04-06T05:03:36.071Z,16.46
2023-04-06T05:04:35.945Z,16.46
2023-04-06T05:05:35.957Z,16.46
2023-04-06T05:06:35.923Z,16.46
2023-04-06T05:07:35.958Z,16.46
2023-04-06T05:08:35.915Z,16.48
2023-04-06T05:09:35.912Z,16.46
2023-04-06T05:10:35.918Z,16.46
2023-04-06T05:11:35.869Z,16.46
2023-04-06T05:12:35.896Z,16.48
2023-04-06T05:13:35.853Z,16.46
2023-04-06T05:14:35.868Z,16.46
2023-04-06T05:15:35.867Z,16.46
2023-04-06T05:16:35.821Z,16.46
2023-04-06T05:17:35.842Z,16.46
2023-04-06T05:18:35.796Z,16.46
2023-04-06T05:19:35.783Z,16.46
2023-04-06T05:20:35.781Z,16.46
2023-04-06T05:21:35.765Z,16.48
2023-04-06T05:22:35.776Z,16.48
2023-04-06T05:23:35.741Z,16.48
2023-04-06T05:24:35.733Z,16.46
2023-04-06T05:25:35.726Z,16.48
2023-04-06T05:26:35.718Z,16.48
2023-04-06T05:27:35.700Z,16.46
2023-04-06T05:28:35.736Z,16.46
2023-04-06T05:29:35.676Z,16.46
2023-04-06T05:30:35.667Z,16.46
2023-04-06T05:31:35.684Z,16.48
2023-04-06T05:32:35.687Z,16.46
2023-04-06T05:33:35.660Z,16.46
2023-04-06T05:34:35.651Z,16.45
2023-04-06T05:35:35.665Z,16.48
2023-04-06T05:36:35.619Z,16.46
2023-04-06T05:37:35.588Z,16.46
2023-04-06T05:38:35.577Z,16.43
2023-04-06T05:39:35.569Z,16.48
2023-04-06T05:40:35.585Z,16.46
2023-04-06T05:41:35.556Z,16.46
2023-04-06T05:42:35.529Z,16.46
2023-04-06T05:43:35.537Z,16.46
2023-04-06T05:44:35.560Z,16.45
2023-04-06T05:45:35.505Z,16.46
2023-04-06T05:46:35.571Z,16.46
2023-04-06T05:47:35.553Z,16.46
2023-04-06T05:48:35.460Z,16.46
2023-04-06T05:49:35.453Z,16.46
2023-04-06T05:50:35.441Z,16.46
2023-04-06T05:51:35.451Z,16.45
2023-04-06T05:52:35.417Z,16.46
2023-04-06T05:53:35.405Z,16.46
2023-04-06T05:54:35.394Z,16.46
2023-04-06T05:55:35.384Z,16.46
2023-04-06T05:56:35.400Z,16.45
2023-04-06T05:57:35.363Z,16.46
2023-04-06T05:58:35.359Z,16.46
2023-04-06T05:59:35.399Z,16.48
2023-04-06T06:00:38.074Z,16.46
2023-04-06T06:01:35.367Z,16.46
2023-04-06T06:02:35.500Z,16.48
2023-04-06T06:03:35.295Z,16.48
2023-04-06T06:04:35.337Z,16.46
2023-04-06T06:05:35.274Z,16.46
2023-04-06T06:06:35.306Z,16.46
2023-04-06T06:07:35.253Z,16.48
2023-04-06T06:08:35.244Z,16.46
2023-04-06T06:09:35.238Z,16.49
2023-04-06T06:10:35.219Z,16.48
2023-04-06T06:11:36.003Z,16.50
2023-04-06T06:12:35.203Z,16.49
2023-04-06T06:13:35.196Z,16.49
2023-04-06T06:14:35.178Z,16.50
2023-04-06T06:15:35.162Z,16.49
2023-04-06T06:16:35.376Z,16.49
2023-04-06T06:17:36.668Z,16.49
2023-04-06T06:18:35.134Z,16.50
2023-04-06T06:19:35.125Z,16.50
2023-04-06T06:20:35.113Z,16.50
2023-04-06T06:21:35.124Z,16.49
2023-04-06T06:22:35.089Z,16.50
2023-04-06T06:23:35.080Z,16.50
2023-04-06T06:24:35.067Z,16.52
2023-04-06T06:25:35.058Z,16.49
2023-04-06T06:26:35.052Z,16.49
2023-04-06T06:27:35.062Z,16.49
2023-04-06T06:28:35.023Z,16.49
2023-04-06T06:29:35.017Z,16.50
2023-04-06T06:30:35.010Z,16.49
2023-04-06T06:31:35.071Z,16.50
2023-04-06T06:32:35.053Z,16.50
2023-04-06T06:33:34.973Z,16.52
2023-04-06T06:34:34.987Z,16.50
2023-04-06T06:35:34.976Z,16.49
2023-04-06T06:36:34.947Z,16.50
2023-04-06T06:37:34.936Z,16.50
2023-04-06T06:38:34.954Z,16.50
2023-04-06T06:39:34.916Z,16.50
2023-04-06T06:40:35.002Z,16.49
2023-04-06T06:41:34.897Z,16.50
2023-04-06T06:42:34.880Z,16.49
2023-04-06T06:43:34.874Z,16.50
2023-04-06T06:44:34.859Z,16.50
2023-04-06T06:45:34.914Z,16.50
2023-04-06T06:46:34.854Z,16.52
2023-04-06T06:47:34.870Z,16.50
2023-04-06T06:48:34.865Z,16.50
2023-04-06T06:49:34.988Z,16.50
2023-04-06T06:50:34.826Z,16.50
2023-04-06T06:51:34.808Z,16.50
2023-04-06T06:52:34.783Z,16.50
2023-04-06T06:53:34.795Z,16.50
2023-04-06T06:54:34.759Z,16.50
2023-04-06T06:55:34.776Z,16.50
2023-04-06T06:56:34.748Z,16.50
2023-04-06T06:57:34.755Z,16.50
2023-04-06T06:58:34.726Z,16.50
2023-04-06T06:59:34.792Z,16.50
2023-04-06T07:00:34.717Z,16.50
2023-04-06T07:01:35.136Z,16.49
2023-04-06T07:02:34.709Z,16.50
2023-04-06T07:03:34.660Z,16.50
2023-04-06T07:04:34.812Z,16.50
2023-04-06T07:05:34.629Z,16.50
2023-04-06T07:06:34.618Z,16.50
2023-04-06T07:07:34.636Z,16.52
2023-04-06T07:08:34.608Z,16.53
2023-04-06T07:09:34.590Z,16.52
2023-04-06T07:10:34.587Z,16.53
2023-04-06T07:11:34.562Z,16.53
2023-04-06T07:12:36.017Z,16.56
2023-04-06T07:13:34.615Z,16.53
2023-04-06T07:14:34.540Z,16.56
2023-04-06T07:15:34.528Z,16.56
2023-04-06T07:16:34.544Z,16.53
2023-04-06T07:17:34.518Z,16.53
2023-04-06T07:18:36.264Z,16.56
2023-04-06T07:19:34.526Z,16.56
2023-04-06T07:20:34.490Z,16.57
2023-04-06T07:21:34.481Z,16.56
2023-04-06T07:22:34.450Z,16.57
2023-04-06T07:23:34.427Z,16.56
2023-04-06T07:24:34.436Z,16.57
2023-04-06T07:25:34.409Z,16.57
2023-04-06T07:26:34.434Z,16.56
2023-04-06T07:27:34.393Z,16.57
2023-04-06T07:28:34.388Z,16.58
2023-04-06T07:29:34.388Z,16.58
2023-04-06T07:30:35.786Z,16.58
2023-04-06T07:31:34.377Z,16.60
2023-04-06T07:32:34.355Z,16.58
2023-04-06T07:33:34.345Z,16.58
2023-04-06T07:34:34.399Z,16.57
2023-04-06T07:35:34.318Z,16.58
2023-04-06T07:36:34.312Z,16.60
2023-04-06T07:37:34.292Z,16.61
2023-04-06T07:38:34.289Z,16.60
2023-04-06T07:39:34.276Z,16.58
2023-04-06T07:40:34.248Z,16.61
2023-04-06T07:41:34.238Z,16.60
2023-04-06T07:42:34.288Z,16.60
2023-04-06T07:43:34.244Z,16.61
2023-04-06T07:44:34.224Z,16.60
2023-04-06T07:45:34.199Z,16.60
2023-04-06T07:46:34.249Z,16.60
2023-04-06T07:47:34.174Z,16.60
2023-04-06T07:48:34.204Z,16.61
2023-04-06T07:49:34.192Z,16.61
2023-04-06T07:50:34.146Z,16.61
2023-04-06T07:51:34.129Z,16.63
2023-04-06T07:52:34.985Z,16.61
2023-04-06T07:53:34.115Z,16.64
2023-04-06T07:54:34.113Z,16.64
2023-04-06T07:55:34.105Z,16.64
2023-04-06T07:56:34.077Z,16.64
2023-04-06T07:57:34.066Z,16.64
2023-04-06T07:58:34.075Z,16.66
2023-04-06T07:59:34.080Z,16.66
2023-04-06T08:00:34.032Z,16.67
2023-04-06T08:01:34.025Z,16.66
2023-04-06T08:02:34.106Z,16.67
2023-04-06T08:03:34.221Z,16.68
2023-04-06T08:04:34.037Z,16.68
2023-04-06T08:05:33.979Z,16.68
2023-04-06T08:06:34.003Z,16.70
2023-04-06T08:07:33.990Z,16.70
2023-04-06T08:08:33.975Z,16.70
2023-04-06T08:09:33.935Z,16.71
2023-04-06T08:10:33.947Z,16.70
2023-04-06T08:11:33.914Z,16.71
2023-04-06T08:12:33.930Z,16.71
2023-04-06T08:13:33.893Z,16.73
2023-04-06T08:14:33.879Z,16.71
2023-04-06T08:15:33.894Z,16.73
2023-04-06T08:16:33.885Z,16.73
2023-04-06T08:17:33.866Z,16.73
2023-04-06T08:18:33.846Z,16.73
2023-04-06T08:19:33.838Z,16.73
2023-04-06T08:20:33.839Z,16.75
2023-04-06T08:21:33.806Z,16.75
2023-04-06T08:22:33.797Z,16.75
2023-04-06T08:23:33.789Z,16.76
2023-04-06T08:24:33.794Z,16.78
2023-04-06T08:25:33.787Z,16.79
2023-04-06T08:26:33.755Z,16.76
2023-04-06T08:27:33.742Z,16.76
2023-04-06T08:28:33.729Z,16.76
2023-04-06T08:29:33.724Z,16.76
2023-04-06T08:30:33.710Z,16.76
2023-04-06T08:31:33.746Z,16.76
2023-04-06T08:32:33.726Z,16.75
2023-04-06T08:33:33.701Z,16.75
2023-04-06T08:34:33.674Z,16.75
2023-04-06T08:35:33.688Z,16.75
2023-04-06T08:36:33.695Z,16.75
2023-04-06T08:37:33.653Z,16.75
2023-04-06T08:38:33.631Z,16.75
2023-04-06T08:39:33.608Z,16.73
2023-04-06T08:40:33.647Z,16.75
2023-04-06T08:41:33.617Z,16.75
2023-04-06T08:42:33.582Z,16.73
2023-04-06T08:43:33.604Z,16.75
2023-04-06T08:44:33.567Z,16.76
2023-04-06T08:45:33.541Z,16.73
2023-04-06T08:46:33.575Z,16.73
2023-04-06T08:47:33.543Z,16.73
2023-04-06T08:48:33.539Z,16.75
2023-04-06T08:49:33.521Z,16.71
2023-04-06T08:50:33.507Z,16.73
2023-04-06T08:51:33.481Z,16.75
2023-04-06T08:52:33.468Z,16.71
2023-04-06T08:53:33.460Z,16.75
2023-04-06T08:54:33.467Z,16.71
2023-04-06T08:55:33.439Z,16.73
2023-04-06T08:56:33.457Z,16.71
2023-04-06T08:57:33.416Z,16.75
2023-04-06T08:58:38.234Z,16.75
2023-04-06T08:59:34.405Z,16.73
2023-04-06T09:00:33.380Z,16.73
2023-04-06T09:01:33.390Z,16.73
2023-04-06T09:02:33.425Z,16.73
2023-04-06T09:03:33.535Z,16.73
2023-04-06T09:04:33.392Z,16.71
2023-04-06T09:05:33.323Z,16.71
2023-04-06T09:06:33.331Z,16.71
2023-04-06T09:07:33.301Z,16.71
2023-04-06T09:08:33.325Z,16.71
2023-04-06T09:09:33.284Z,16.71
2023-04-06T09:10:33.279Z,16.71
2023-04-06T09:11:33.259Z,16.71
2023-04-06T09:12:33.281Z,16.71
2023-04-06T09:13:33.261Z,16.71
2023-04-06T09:14:33.227Z,16.71
2023-04-06T09:15:33.228Z,16.71
2023-04-06T09:16:33.285Z,16.73
2023-04-06T09:17:33.208Z,16.73
2023-04-06T09:18:33.211Z,16.71
2023-04-06T09:19:33.182Z,16.73
2023-04-06T09:20:33.161Z,16.73
2023-04-06T09:21:33.195Z,16.73
2023-04-06T09:22:33.147Z,16.73
2023-04-06T09:23:33.154Z,16.73
2023-04-06T09:24:33.143Z,16.73
2023-04-06T09:25:33.114Z,16.73
2023-04-06T09:26:33.098Z,16.73
2023-04-06T09:27:33.111Z,16.73
2023-04-06T09:28:33.127Z,16.73
2023-04-06T09:29:33.141Z,16.73
2023-04-06T09:30:33.069Z,16.73
2023-04-06T09:31:33.105Z,16.73
2023-04-06T09:32:33.064Z,16.73
2023-04-06T09:33:33.025Z,16.75
2023-04-06T09:34:33.062Z,16.78
2023-04-06T09:35:33.039Z,16.76
2023-04-06T09:36:33.005Z,16.76
2023-04-06T09:37:32.982Z,16.78
2023-04-06T09:38:32.973Z,16.78
2023-04-06T09:39:34.873Z,16.78
2023-04-06T09:40:32.952Z,16.78
2023-04-06T09:41:32.940Z,16.78
2023-04-06T09:42:32.928Z,16.78
2023-04-06T09:43:32.957Z,16.79
2023-04-06T09:44:32.943Z,16.76
2023-04-06T09:45:32.926Z,16.78
2023-04-06T09:46:37.957Z,16.76
2023-04-06T09:47:34.011Z,16.76
2023-04-06T09:48:32.943Z,16.76
2023-04-06T09:49:32.851Z,16.75
2023-04-06T09:50:32.855Z,16.76
2023-04-06T09:51:34.501Z,16.75
2023-04-06T09:52:32.837Z,16.76
2023-04-06T09:53:32.805Z,16.75
2023-04-06T09:54:32.831Z,16.76
2023-04-06T09:55:32.791Z,16.76
2023-04-06T09:56:32.783Z,16.76
2023-04-06T09:57:32.759Z,16.75
2023-04-06T09:58:32.749Z,16.76
2023-04-06T09:59:32.860Z,16.76
2023-04-06T10:00:32.823Z,16.78
2023-04-06T10:01:32.909Z,16.78
2023-04-06T10:02:32.756Z,16.79
2023-04-06T10:03:32.869Z,16.78
2023-04-06T10:04:32.679Z,16.79
2023-04-06T10:05:32.706Z,16.79
2023-04-06T10:06:32.670Z,16.78
2023-04-06T10:07:32.675Z,16.81
2023-04-06T10:08:33.875Z,16.81
2023-04-06T10:09:32.632Z,16.81
2023-04-06T10:10:34.223Z,16.81
2023-04-06T10:11:32.624Z,16.82
2023-04-06T10:12:32.594Z,16.82
2023-04-06T10:13:32.597Z,16.82
2023-04-06T10:14:32.573Z,16.82
2023-04-06T10:15:34.755Z,16.82
2023-04-06T10:16:32.576Z,16.83
2023-04-06T10:17:32.612Z,16.83
2023-04-06T10:18:32.527Z,16.83
2023-04-06T10:19:32.530Z,16.85
2023-04-06T10:20:32.562Z,16.86
2023-04-06T10:21:32.515Z,16.85
2023-04-06T10:22:32.486Z,16.85
2023-04-06T10:23:32.475Z,16.86
2023-04-06T10:24:32.475Z,16.85
2023-04-06T10:25:32.505Z,16.86
2023-04-06T10:26:32.450Z,16.86
2023-04-06T10:27:32.448Z,16.86
2023-04-06T10:28:32.420Z,16.86
2023-04-06T10:29:32.409Z,16.88
2023-04-06T10:30:32.399Z,16.88
2023-04-06T10:31:33.647Z,16.88
2023-04-06T10:32:32.897Z,16.88
2023-04-06T10:33:32.367Z,16.88
2023-04-06T10:34:32.358Z,16.88
2023-04-06T10:35:32.395Z,16.89
2023-04-06T10:36:32.337Z,16.89
2023-04-06T10:37:32.326Z,16.89
2023-04-06T10:38:33.479Z,16.91
2023-04-06T10:39:32.308Z,16.89
2023-04-06T10:40:32.299Z,16.89
2023-04-06T10:41:32.287Z,16.91
2023-04-06T10:42:32.291Z,16.89
2023-04-06T10:43:33.696Z,16.89
2023-04-06T10:44:33.561Z,16.91
2023-04-06T10:45:32.306Z,16.91
2023-04-06T10:46:32.251Z,16.91
2023-04-06T10:47:32.268Z,16.91
2023-04-06T10:48:34.267Z,16.93
2023-04-06T10:49:32.198Z,16.93
2023-04-06T10:50:32.196Z,16.93
2023-04-06T10:51:32.174Z,16.91
2023-04-06T10:52:32.164Z,16.93
2023-04-06T10:53:33.090Z,16.91
2023-04-06T10:54:32.146Z,16.91
2023-04-06T10:55:32.131Z,16.91
2023-04-06T10:56:34.809Z,16.91
2023-04-06T10:57:32.111Z,16.93
2023-04-06T10:58:32.128Z,16.93
2023-04-06T10:59:33.445Z,16.93
2023-04-06T11:00:47.161Z,16.93
2023-04-06T11:01:33.093Z,16.93
2023-04-06T11:02:32.099Z,16.93
2023-04-06T11:03:32.067Z,16.93
2023-04-06T11:04:32.185Z,16.94
2023-04-06T11:05:32.050Z,16.94
2023-04-06T11:06:33.524Z,16.94
2023-04-06T11:07:32.000Z,16.93
2023-04-06T11:08:32.001Z,16.94
2023-04-06T11:09:32.014Z,16.93
2023-04-06T11:10:31.991Z,16.94
2023-04-06T11:11:31.953Z,16.93
2023-04-06T11:12:31.941Z,16.94
2023-04-06T11:13:31.940Z,16.94
2023-04-06T11:14:32.012Z,16.96
2023-04-06T11:15:31.914Z,16.96
2023-04-06T11:16:31.961Z,16.96
2023-04-06T11:17:31.929Z,16.96
2023-04-06T11:18:31.882Z,16.96
2023-04-06T11:19:32.011Z,16.96
2023-04-06T11:20:31.904Z,16.96
2023-04-06T11:21:31.901Z,16.94
2023-04-06T11:22:31.857Z,16.96
2023-04-06T11:23:31.820Z,16.96
2023-04-06T11:24:31.835Z,16.96
2023-04-06T11:25:31.871Z,16.96
2023-04-06T11:26:32.111Z,16.96
2023-04-06T11:27:31.776Z,16.96
2023-04-06T11:28:31.767Z,16.96
2023-04-06T11:29:31.991Z,16.96
2023-04-06T11:30:31.749Z,16.96
2023-04-06T11:31:31.838Z,16.94
2023-04-06T11:32:31.794Z,16.94
2023-04-06T11:33:31.722Z,16.94
2023-04-06T11:34:31.810Z,16.94
2023-04-06T11:35:31.713Z,16.93
2023-04-06T11:36:31.691Z,16.93
2023-04-06T11:37:31.727Z,16.93
2023-04-06T11:38:31.658Z,16.93
2023-04-06T11:39:31.646Z,16.91
2023-04-06T11:40:31.638Z,16.91
2023-04-06T11:41:31.622Z,16.89
2023-04-06T11:42:31.643Z,16.91
2023-04-06T11:43:31.652Z,16.88
2023-04-06T11:44:31.596Z,16.89
2023-04-06T11:45:31.580Z,16.89
2023-04-06T11:46:31.673Z,16.88
2023-04-06T11:47:31.617Z,16.89
2023-04-06T11:48:31.568Z,16.88
2023-04-06T11:49:31.543Z,16.88
2023-04-06T11:50:31.528Z,16.86
2023-04-06T11:51:31.576Z,16.88
2023-04-06T11:52:31.528Z,16.88
2023-04-06T11:53:31.534Z,16.88
2023-04-06T11:54:31.499Z,16.88
2023-04-06T11:55:33.241Z,16.88
2023-04-06T11:56:31.470Z,16.88
2023-04-06T11:57:31.471Z,16.88
2023-04-06T11:58:31.437Z,16.88
2023-04-06T11:59:31.496Z,16.88
2023-04-06T12:00:31.417Z,16.88
2023-04-06T12:01:34.150Z,16.86
2023-04-06T12:02:32.506Z,16.86
2023-04-06T12:03:31.558Z,16.86
2023-04-06T12:04:31.428Z,16.88
2023-04-06T12:05:31.403Z,16.86
2023-04-06T12:06:31.358Z,16.86
2023-04-06T12:07:31.368Z,16.85
2023-04-06T12:08:31.351Z,16.86
2023-04-06T12:09:31.318Z,16.88
2023-04-06T12:10:31.306Z,16.85
2023-04-06T12:11:31.302Z,16.85
2023-04-06T12:12:31.295Z,16.85
2023-04-06T12:13:33.793Z,16.85
2023-04-06T12:14:33.561Z,16.85
2023-04-06T12:15:31.256Z,16.85
2023-04-06T12:16:31.242Z,16.83
2023-04-06T12:17:31.244Z,16.83
2023-04-06T12:18:33.439Z,16.85
2023-04-06T12:19:32.589Z,16.83
2023-04-06T12:20:33.609Z,16.83
2023-04-06T12:21:31.197Z,16.83
2023-04-06T12:22:31.175Z,16.83
2023-04-06T12:23:31.193Z,16.83
2023-04-06T12:24:31.156Z,16.83
2023-04-06T12:25:32.929Z,16.83
2023-04-06T12:26:31.132Z,16.83
2023-04-06T12:27:31.122Z,16.82
2023-04-06T12:28:31.116Z,16.82
2023-04-06T12:29:31.096Z,16.83
2023-04-06T12:30:33.387Z,16.83
2023-04-06T12:31:31.130Z,16.82
2023-04-06T12:32:31.108Z,16.82
2023-04-06T12:33:31.073Z,16.83
2023-04-06T12:34:31.051Z,16.82
2023-04-06T12:35:31.031Z,16.82
2023-04-06T12:36:33.903Z,16.83
2023-04-06T12:37:31.008Z,16.83
2023-04-06T12:38:31.008Z,16.83
2023-04-06T12:39:31.032Z,16.82
2023-04-06T12:40:32.808Z,16.83
2023-04-06T12:41:30.966Z,16.83
2023-04-06T12:42:30.955Z,16.83
2023-04-06T12:43:30.954Z,16.82
2023-04-06T12:44:30.934Z,16.82
2023-04-06T12:45:30.927Z,16.82
2023-04-06T12:46:30.974Z,16.82
2023-04-06T12:47:30.915Z,16.82
2023-04-06T12:48:30.892Z,16.81
2023-04-06T12:49:31.639Z,16.82
2023-04-06T12:50:30.876Z,16.82
2023-04-06T12:51:30.886Z,16.82
2023-04-06T12:52:30.846Z,16.82